createdAt,value
2022-11-11T00:01:12.715Z,38.65
2022-11-11T00:03:40.324Z,21.47
2022-11-11T00:06:09.860Z,28.50
2022-11-11T00:08:37.735Z,27.15
2022-11-11T00:11:07.842Z,98.25
2022-11-11T00:13:35.970Z,29.40
2022-11-11T00:16:07.132Z,104.60
2022-11-11T00:18:52.536Z,49.77
2022-11-11T00:21:37.433Z,54.93
2022-11-11T00:24:22.923Z,53.13
2022-11-11T00:26:51.858Z,32.78
2022-11-11T00:29:21.114Z,38.00
2022-11-11T00:32:06.317Z,12.97
2022-11-11T00:34:33.933Z,14.73
2022-11-11T00:37:00.498Z,11.50
2022-11-11T00:39:28.268Z,12.43
2022-11-11T00:41:57.186Z,12.20
2022-11-11T00:44:26.024Z,17.80
2022-11-11T00:47:10.890Z,21.60
2022-11-11T00:49:56.260Z,23.95
2022-11-11T00:52:23.955Z,14.93
2022-11-11T00:54:51.629Z,9.67
2022-11-11T00:57:20.536Z,14.47
2022-11-11T00:59:48.071Z,13.67
2022-11-11T01:02:15.660Z,12.07
2022-11-11T01:04:43.371Z,15.77
2022-11-11T01:07:11.130Z,10.93
2022-11-11T01:09:38.760Z,23.67
2022-11-11T01:12:06.471Z,38.57
2022-11-11T01:14:35.542Z,41.13
2022-11-11T01:17:04.985Z,72.27
2022-11-11T01:19:32.646Z,35.80
2022-11-11T01:22:00.497Z,38.80
2022-11-11T01:24:28.165Z,23.87
2022-11-11T01:26:56.028Z,14.63
2022-11-11T01:29:23.943Z,15.27
2022-11-11T01:31:52.946Z,19.03
2022-11-11T01:34:20.723Z,13.37
2022-11-11T01:36:48.475Z,20.23
2022-11-11T01:39:16.320Z,14.47
2022-11-11T01:41:43.992Z,21.90
2022-11-11T01:44:19.998Z,25.13
2022-11-11T01:46:49.977Z,33.47
2022-11-11T01:49:23.365Z,27.80
2022-11-11T01:51:54.435Z,46.33
2022-11-11T01:54:24.331Z,38.07
2022-11-11T01:56:52.798Z,38.80
2022-11-11T01:59:20.831Z,13.97
2022-11-11T02:01:49.290Z,19.73
2022-11-11T02:04:34.923Z,23.23
2022-11-11T02:07:05.524Z,28.73
2022-11-11T02:09:33.508Z,21.57
2022-11-11T02:12:21.240Z,40.10
2022-11-11T02:14:52.692Z,84.30
2022-11-11T02:17:20.454Z,35.27
2022-11-11T02:19:50.729Z,59.57
2022-11-11T02:22:23.574Z,40.03
2022-11-11T02:24:53.891Z,35.10
2022-11-11T02:27:22.664Z,19.17
2022-11-11T02:29:51.516Z,25.27
2022-11-11T02:32:19.091Z,51.73
2022-11-11T02:34:46.992Z,53.73
2022-11-11T02:37:21.142Z,26.05
2022-11-11T02:40:03.752Z,27.23
2022-11-11T02:42:35.517Z,26.20
2022-11-11T02:45:03.234Z,20.67
2022-11-11T02:47:31.146Z,23.80
2022-11-11T02:49:58.918Z,23.47
2022-11-11T02:52:26.601Z,17.10
2022-11-11T02:54:54.353Z,27.77
2022-11-11T02:57:22.707Z,42.65
2022-11-11T02:59:52.104Z,46.87
2022-11-11T03:02:19.983Z,24.13
2022-11-11T03:04:48.018Z,72.57
2022-11-11T03:07:15.825Z,38.43
2022-11-11T03:09:43.752Z,27.17
2022-11-11T03:12:13.986Z,38.63
2022-11-11T03:14:41.675Z,49.47
2022-11-11T03:17:28.602Z,34.50
2022-11-11T03:20:16.388Z,37.10
2022-11-11T03:22:58.437Z,24.80
2022-11-11T03:25:41.142Z,24.93
2022-11-11T03:28:09.551Z,21.33
2022-11-11T03:30:37.652Z,15.03
2022-11-11T03:33:06.760Z,11.70
2022-11-11T03:35:34.828Z,27.70
2022-11-11T03:38:25.813Z,19.17
2022-11-11T03:40:55.136Z,18.43
2022-11-11T03:43:23.817Z,23.27
2022-11-11T03:45:51.793Z,32.43
2022-11-11T03:48:22.681Z,28.27
2022-11-11T03:50:50.669Z,43.17
2022-11-11T03:53:20.130Z,22.00
2022-11-11T03:55:48.401Z,21.03
2022-11-11T03:58:16.023Z,37.43
2022-11-11T04:00:43.928Z,31.40
2022-11-11T04:03:30.075Z,17.63
2022-11-11T04:06:17.254Z,39.90
2022-11-11T04:09:02.133Z,20.77
2022-11-11T04:11:30.764Z,20.07
2022-11-11T04:14:17.833Z,22.23
2022-11-11T04:16:45.355Z,18.53
2022-11-11T04:19:29.317Z,52.93
2022-11-11T04:21:58.366Z,28.47
2022-11-11T04:24:43.354Z,40.33
2022-11-11T04:27:11.651Z,36.60
2022-11-11T04:29:38.461Z,21.67
2022-11-11T04:32:24.444Z,60.27
2022-11-11T04:34:53.007Z,31.53
2022-11-11T04:37:22.540Z,26.47
2022-11-11T04:40:08.071Z,21.57
2022-11-11T04:42:35.914Z,16.23
2022-11-11T04:45:21.069Z,9.57
2022-11-11T04:51:07.520Z,11.93
2022-11-11T04:53:37.399Z,13.97
2022-11-11T04:56:22.690Z,20.10
2022-11-11T04:59:10.262Z,15.17
2022-11-11T05:01:54.983Z,15.90
2022-11-11T05:07:20.360Z,19.40
2022-11-11T05:09:49.314Z,17.37
2022-11-11T05:12:16.877Z,23.97
2022-11-11T05:15:02.342Z,25.17
2022-11-11T05:17:47.440Z,13.37
2022-11-11T05:20:37.575Z,18.73
2022-11-11T05:23:06.662Z,13.97
2022-11-11T05:25:35.176Z,15.80
2022-11-11T05:28:02.803Z,19.30
2022-11-11T05:30:30.354Z,23.37
2022-11-11T05:32:58.192Z,26.50
2022-11-11T05:35:25.856Z,21.17
2022-11-11T05:38:07.348Z,30.77
2022-11-11T05:40:36.193Z,26.13
2022-11-11T05:43:03.720Z,32.47
2022-11-11T05:45:31.332Z,26.93
2022-11-11T05:48:02.400Z,27.80
2022-11-11T05:50:31.319Z,19.03
2022-11-11T05:52:58.951Z,18.03
2022-11-11T05:55:26.437Z,18.23
2022-11-11T05:57:55.309Z,17.27
2022-11-11T06:00:22.928Z,16.47
2022-11-11T06:02:50.370Z,14.27
2022-11-11T06:05:17.847Z,17.10
2022-11-11T06:07:45.456Z,24.13
2022-11-11T06:10:30.357Z,26.40
2022-11-11T06:13:07.648Z,21.53
2022-11-11T06:15:35.759Z,20.23
2022-11-11T06:18:03.255Z,18.03
2022-11-11T06:20:30.739Z,19.10
2022-11-11T06:22:58.373Z,20.10
2022-11-11T06:25:43.753Z,18.97
2022-11-11T06:28:12.962Z,20.30
2022-11-11T06:30:50.225Z,20.73
2022-11-11T06:33:18.404Z,22.13
2022-11-11T06:35:46.220Z,19.53
2022-11-11T06:38:14.230Z,20.40
2022-11-11T06:40:43.189Z,21.77
2022-11-11T06:43:12.183Z,16.00
2022-11-11T06:45:39.772Z,24.37
2022-11-11T06:48:07.674Z,18.23
2022-11-11T06:50:36.054Z,19.53
2022-11-11T06:53:07.005Z,21.73
2022-11-11T06:55:34.673Z,27.10
2022-11-11T06:58:05.717Z,24.43
2022-11-11T07:00:34.744Z,22.20
2022-11-11T07:03:02.550Z,21.77
2022-11-11T07:05:30.169Z,27.73
2022-11-11T07:07:59.995Z,20.27
2022-11-11T07:10:27.485Z,19.23
2022-11-11T07:12:54.953Z,20.43
2022-11-11T07:15:22.516Z,18.43
2022-11-11T07:17:51.356Z,23.57
2022-11-11T07:20:18.833Z,17.50
2022-11-11T07:22:46.291Z,20.60
2022-11-11T07:25:13.838Z,20.45
2022-11-11T07:27:41.837Z,25.43
2022-11-11T07:30:10.295Z,20.50
2022-11-11T07:32:38.223Z,20.93
2022-11-11T07:35:07.472Z,19.20
2022-11-11T07:37:37.215Z,20.10
2022-11-11T07:40:05.205Z,18.47
2022-11-11T07:42:32.745Z,18.73
2022-11-11T07:45:00.271Z,18.10
2022-11-11T07:47:27.841Z,21.03
2022-11-11T07:49:55.368Z,21.57
2022-11-11T07:52:24.796Z,19.77
2022-11-11T07:54:52.286Z,18.67
2022-11-11T07:57:19.846Z,17.33
2022-11-11T07:59:47.455Z,14.48
2022-11-11T08:02:15.530Z,15.57
2022-11-11T08:04:43.146Z,17.90
2022-11-11T08:07:10.996Z,17.75
2022-11-11T08:09:40.039Z,15.07
2022-11-11T08:12:24.982Z,14.17
2022-11-11T08:14:52.533Z,15.88
2022-11-11T08:17:20.081Z,18.97
2022-11-11T08:19:47.761Z,16.40
2022-11-11T08:22:15.258Z,13.00
2022-11-11T08:25:02.880Z,14.93
2022-11-11T08:27:31.704Z,15.65
2022-11-11T08:29:59.266Z,13.13
2022-11-11T08:32:26.796Z,11.50
2022-11-11T08:34:54.274Z,12.02
2022-11-11T08:37:21.792Z,13.75
2022-11-11T08:39:52.382Z,12.55
2022-11-11T08:42:19.879Z,11.50
2022-11-11T08:44:47.452Z,13.07
2022-11-11T08:47:15.130Z,12.00
2022-11-11T08:49:43.367Z,13.02
2022-11-11T08:52:10.998Z,11.93
2022-11-11T08:54:38.474Z,11.43
2022-11-11T08:57:07.364Z,11.55
2022-11-11T08:59:34.884Z,12.57
2022-11-11T09:02:02.388Z,12.30
2022-11-11T09:04:47.573Z,12.60
2022-11-11T09:07:16.999Z,14.35
2022-11-11T09:09:44.518Z,16.63
2022-11-11T09:12:13.426Z,13.85
2022-11-11T09:14:40.931Z,18.02
2022-11-11T09:17:09.031Z,12.85
2022-11-11T09:19:36.801Z,16.98
2022-11-11T09:22:04.492Z,19.45
2022-11-11T09:24:32.108Z,12.65
2022-11-11T09:26:59.761Z,12.45
2022-11-11T09:29:28.816Z,12.02
2022-11-11T09:31:56.320Z,19.20
2022-11-11T09:34:23.842Z,11.20
2022-11-11T09:36:51.416Z,14.15
2022-11-11T09:39:18.914Z,17.73
2022-11-11T09:41:55.914Z,11.57
2022-11-11T09:44:33.419Z,13.57
2022-11-11T09:47:05.682Z,11.27
2022-11-11T09:49:39.828Z,9.43
2022-11-11T09:52:13.577Z,8.77
2022-11-11T09:54:42.607Z,8.65
2022-11-11T09:57:15.525Z,8.95
2022-11-11T09:59:46.927Z,7.97
2022-11-11T10:02:18.684Z,16.17
2022-11-11T10:04:50.641Z,8.82
2022-11-11T10:07:25.511Z,9.50
2022-11-11T10:09:57.558Z,10.05
2022-11-11T10:12:28.985Z,14.35
2022-11-11T10:15:01.225Z,8.02
2022-11-11T10:17:34.213Z,8.90
2022-11-11T10:20:06.192Z,14.13
2022-11-11T10:22:35.578Z,9.68
2022-11-11T10:25:07.751Z,11.98
2022-11-11T10:27:35.416Z,10.57
2022-11-11T10:30:08.859Z,7.57
2022-11-11T10:32:37.222Z,10.48
2022-11-11T10:35:13.629Z,6.68
2022-11-11T10:37:42.205Z,7.90
2022-11-11T10:40:14.751Z,8.10
2022-11-11T10:42:43.947Z,9.68
2022-11-11T10:45:18.099Z,9.82
2022-11-11T10:47:49.211Z,9.80
2022-11-11T10:50:19.853Z,14.10
2022-11-11T10:52:49.452Z,9.35
2022-11-11T10:55:19.766Z,15.57
2022-11-11T10:57:49.417Z,7.70
2022-11-11T11:00:18.700Z,10.95
2022-11-11T11:02:50.242Z,8.07
2022-11-11T11:05:20.880Z,7.43
2022-11-11T11:07:50.936Z,9.88
2022-11-11T11:10:20.141Z,10.80
2022-11-11T11:12:52.036Z,15.43
2022-11-11T11:15:22.773Z,6.78
2022-11-11T11:17:54.790Z,9.77
2022-11-11T11:20:22.681Z,9.88
2022-11-11T11:22:51.769Z,7.20
2022-11-11T11:25:20.144Z,6.18
2022-11-11T11:27:48.061Z,7.50
2022-11-11T11:30:17.303Z,6.57
2022-11-11T11:32:59.679Z,9.95
2022-11-11T11:35:31.070Z,5.55
2022-11-11T11:37:58.572Z,7.05
2022-11-11T11:40:26.171Z,8.68
2022-11-11T11:42:53.647Z,7.18
2022-11-11T11:45:22.630Z,9.75
2022-11-11T11:48:29.384Z,6.28
2022-11-11T11:50:51.090Z,6.07
2022-11-11T11:53:37.028Z,7.15
2022-11-11T11:56:08.660Z,8.70
2022-11-11T11:58:42.852Z,7.35
2022-11-11T12:01:12.623Z,4.72
2022-11-11T12:03:55.257Z,7.57
2022-11-11T12:06:27.975Z,7.65
2022-11-11T12:09:02.621Z,4.22
2022-11-11T12:11:34.063Z,6.03
2022-11-11T12:14:16.451Z,9.75
2022-11-11T12:16:46.374Z,6.68
2022-11-11T12:19:23.621Z,6.60
2022-11-11T12:21:59.650Z,6.28
2022-11-11T12:24:36.831Z,8.07
2022-11-11T12:27:10.427Z,6.15
2022-11-11T12:29:44.367Z,5.70
2022-11-11T12:32:23.640Z,6.30
2022-11-11T12:35:02.860Z,8.02
2022-11-11T12:37:36.564Z,7.10
2022-11-11T12:40:14.159Z,5.75
2022-11-11T12:42:47.286Z,7.57
2022-11-11T12:45:18.408Z,4.57
2022-11-11T12:47:49.886Z,6.20
2022-11-11T12:50:22.205Z,4.57
2022-11-11T12:52:58.165Z,5.95
2022-11-11T12:55:31.679Z,4.65
2022-11-11T12:58:16.467Z,4.10
2022-11-11T13:00:52.355Z,10.40
2022-11-11T13:03:28.058Z,4.45
2022-11-11T13:06:00.352Z,6.35
2022-11-11T13:08:39.258Z,6.55
2022-11-11T13:11:13.256Z,4.95
2022-11-11T13:13:47.134Z,6.43
2022-11-11T13:16:23.997Z,6.03
2022-11-11T13:18:57.074Z,3.60
2022-11-11T13:21:27.599Z,8.05
2022-11-11T13:23:56.686Z,4.68
2022-11-11T13:26:27.601Z,4.53
2022-11-11T13:29:00.838Z,8.20
2022-11-11T13:31:32.717Z,5.05
2022-11-11T13:34:04.800Z,9.15
2022-11-11T13:36:40.172Z,7.13
2022-11-11T13:39:20.444Z,7.65
2022-11-11T13:41:50.242Z,5.32
2022-11-11T13:44:21.155Z,5.30
2022-11-11T13:46:50.336Z,5.88
2022-11-11T13:49:23.530Z,5.22
2022-11-11T13:51:58.741Z,7.13
2022-11-11T13:54:29.842Z,5.70
2022-11-11T13:57:02.796Z,4.80
2022-11-11T13:59:32.297Z,6.00
2022-11-11T14:02:18.243Z,4.97
2022-11-11T14:05:06.669Z,4.82
2022-11-11T14:07:48.711Z,7.43
2022-11-11T14:10:32.293Z,5.18
2022-11-11T14:13:26.430Z,9.02
2022-11-11T14:15:54.744Z,5.97
2022-11-11T14:18:38.705Z,5.53
2022-11-11T14:21:06.596Z,5.30
2022-11-11T14:23:35.767Z,7.50
2022-11-11T14:26:22.187Z,7.35
2022-11-11T14:28:58.241Z,4.85
2022-11-11T14:31:32.572Z,6.35
2022-11-11T14:34:02.840Z,6.38
2022-11-11T14:36:34.715Z,6.07
2022-11-11T14:39:07.721Z,6.75
2022-11-11T14:41:49.284Z,9.27
2022-11-11T14:44:35.549Z,7.03
2022-11-11T14:47:36.004Z,5.30
2022-11-11T14:50:05.239Z,8.70
2022-11-11T14:52:35.526Z,9.38
2022-11-11T14:55:07.804Z,6.95
2022-11-11T14:57:36.456Z,6.68
2022-11-11T15:00:06.044Z,7.63
2022-11-11T15:02:35.499Z,9.10
2022-11-11T15:05:04.586Z,8.20
2022-11-11T15:07:38.015Z,5.60
2022-11-11T15:10:21.216Z,4.32
2022-11-11T15:13:01.688Z,6.25
2022-11-11T15:15:32.926Z,5.22
2022-11-11T15:18:06.210Z,7.53
2022-11-11T15:20:44.000Z,8.73
2022-11-11T15:23:18.870Z,8.63
2022-11-11T15:25:50.975Z,8.63
2022-11-11T15:28:25.252Z,8.15
2022-11-11T15:30:59.727Z,5.63
2022-11-11T15:33:29.308Z,7.47
2022-11-11T15:36:02.899Z,8.45
2022-11-11T15:38:34.527Z,12.65
2022-11-11T15:41:02.284Z,22.00
2022-11-11T15:43:30.686Z,10.80
2022-11-11T15:45:59.655Z,12.13
2022-11-11T15:48:28.734Z,8.35
2022-11-11T15:50:56.441Z,7.03
2022-11-11T15:53:25.185Z,7.43
2022-11-11T15:55:57.839Z,6.15
2022-11-11T15:58:29.319Z,4.32
2022-11-11T16:00:58.260Z,4.22
2022-11-11T16:03:30.681Z,9.88
2022-11-11T16:05:58.296Z,10.77
2022-11-11T16:08:26.149Z,7.35
2022-11-11T16:10:57.133Z,7.43
2022-11-11T16:13:27.795Z,11.32
2022-11-11T16:15:57.787Z,15.77
2022-11-11T16:18:30.421Z,19.13
2022-11-11T16:21:00.376Z,26.70
2022-11-11T16:23:28.566Z,15.38
2022-11-11T16:25:59.236Z,13.57
2022-11-11T16:28:28.034Z,15.77
2022-11-11T16:30:55.550Z,15.10
2022-11-11T16:33:35.943Z,10.88
2022-11-11T16:36:10.230Z,11.95
2022-11-11T16:38:38.747Z,16.67
2022-11-11T16:41:21.349Z,15.07
2022-11-11T16:43:55.521Z,9.77
2022-11-11T16:46:42.831Z,8.90
2022-11-11T16:49:21.041Z,8.65
2022-11-11T16:51:48.932Z,12.65
2022-11-11T16:54:19.010Z,11.90
2022-11-11T16:56:47.774Z,14.63
2022-11-11T16:59:17.798Z,14.25
2022-11-11T17:01:47.041Z,12.45
2022-11-11T17:04:15.303Z,8.98
2022-11-11T17:06:55.134Z,7.18
2022-11-11T17:09:34.002Z,6.43
2022-11-11T17:12:01.453Z,6.95
2022-11-11T17:14:31.218Z,9.48
2022-11-11T17:16:59.730Z,10.90
2022-11-11T17:19:27.497Z,6.90
2022-11-11T17:21:55.210Z,8.57
2022-11-11T17:24:23.442Z,8.10
2022-11-11T17:26:51.219Z,7.57
2022-11-11T17:29:18.927Z,11.90
2022-11-11T17:31:48.879Z,10.68
2022-11-11T17:34:16.885Z,13.35
2022-11-11T17:36:44.421Z,13.38
2022-11-11T17:39:12.314Z,11.43
2022-11-11T17:41:40.114Z,17.42
2022-11-11T17:44:07.612Z,21.05
2022-11-11T17:46:35.051Z,16.75
2022-11-11T17:49:03.835Z,16.95
2022-11-11T17:51:31.612Z,16.73
2022-11-11T17:54:00.267Z,14.98
2022-11-11T17:56:27.787Z,24.35
2022-11-11T17:58:56.016Z,29.23
2022-11-11T18:01:24.450Z,34.67
2022-11-11T18:03:55.661Z,35.70
2022-11-11T18:06:26.506Z,28.67
2022-11-11T18:08:54.095Z,24.30
2022-11-11T18:11:21.510Z,25.58
2022-11-11T18:13:49.008Z,25.73
2022-11-11T18:16:17.072Z,30.27
2022-11-11T18:18:44.811Z,35.25
2022-11-11T18:21:12.504Z,35.42
2022-11-11T18:23:41.534Z,48.70
2022-11-11T18:26:09.484Z,45.83
2022-11-11T18:28:37.890Z,43.45
2022-11-11T18:31:06.971Z,28.90
2022-11-11T18:33:34.934Z,26.02
2022-11-11T18:36:06.528Z,22.23
2022-11-11T18:38:36.460Z,19.90
2022-11-11T18:41:06.828Z,24.48
2022-11-11T18:43:35.131Z,22.73
2022-11-11T18:46:05.734Z,25.95
2022-11-11T18:48:33.202Z,21.67
2022-11-11T18:51:01.444Z,19.90
2022-11-11T18:53:30.113Z,24.90
2022-11-11T18:56:02.148Z,21.98
2022-11-11T18:58:31.298Z,20.17
2022-11-11T19:01:09.002Z,22.30
2022-11-11T19:03:36.861Z,23.08
2022-11-11T19:06:07.086Z,20.23
2022-11-11T19:08:35.156Z,22.65
2022-11-11T19:11:02.721Z,23.55
2022-11-11T19:13:31.617Z,25.80
2022-11-11T19:16:05.135Z,24.25
2022-11-11T19:18:32.565Z,25.90
2022-11-11T19:20:59.996Z,26.40
2022-11-11T19:23:27.655Z,37.55
2022-11-11T19:25:58.825Z,33.13
2022-11-11T19:28:44.374Z,39.90
2022-11-11T19:31:12.417Z,40.83
2022-11-11T19:33:40.529Z,50.20
2022-11-11T19:36:09.258Z,43.83
2022-11-11T19:38:38.017Z,33.13
2022-11-11T19:41:09.446Z,30.73
2022-11-11T19:43:38.828Z,38.38
2022-11-11T19:46:07.190Z,29.80
2022-11-11T19:48:35.054Z,29.02
2022-11-11T19:51:04.518Z,23.75
2022-11-11T19:53:31.982Z,22.33
2022-11-11T19:56:00.106Z,17.92
2022-11-11T19:58:27.912Z,21.67
2022-11-11T20:00:56.842Z,20.85
2022-11-11T20:03:24.856Z,19.95
2022-11-11T20:05:52.560Z,23.75
2022-11-11T20:08:19.956Z,24.08
2022-11-11T20:10:47.434Z,50.80
2022-11-11T20:13:14.948Z,56.25
2022-11-11T20:15:42.423Z,53.15
2022-11-11T20:18:11.189Z,50.40
2022-11-11T20:20:38.627Z,41.20
2022-11-11T20:23:06.696Z,39.33
2022-11-11T20:25:37.518Z,38.75
2022-11-11T20:28:05.059Z,38.47
2022-11-11T20:30:32.454Z,35.15
2022-11-11T20:32:59.882Z,36.72
2022-11-11T20:35:28.719Z,34.13
2022-11-11T20:37:56.132Z,31.75
2022-11-11T20:40:23.543Z,26.38
2022-11-11T20:42:50.970Z,27.65
2022-11-11T20:45:18.450Z,34.65
2022-11-11T20:47:45.940Z,28.30
2022-11-11T20:50:13.329Z,28.40
2022-11-11T20:52:42.065Z,31.98
2022-11-11T20:55:09.584Z,35.72
2022-11-11T20:57:37.034Z,32.72
2022-11-11T21:00:04.703Z,36.22
2022-11-11T21:02:32.589Z,40.05
2022-11-11T21:05:00.030Z,36.08
2022-11-11T21:07:27.413Z,32.83
2022-11-11T21:09:56.236Z,31.42
2022-11-11T21:12:23.630Z,27.65
2022-11-11T21:14:51.057Z,25.83
2022-11-11T21:17:18.463Z,32.53
2022-11-11T21:19:45.913Z,26.23
2022-11-11T21:22:13.345Z,25.75
2022-11-11T21:24:40.797Z,25.98
2022-11-11T21:27:09.562Z,25.13
2022-11-11T21:29:36.989Z,22.98
2022-11-11T21:32:04.524Z,24.40
2022-11-11T21:34:32.032Z,37.20
2022-11-11T21:36:59.511Z,32.72
2022-11-11T21:39:27.241Z,39.83
2022-11-11T21:41:54.868Z,45.38
2022-11-11T21:44:23.754Z,44.97
2022-11-11T21:46:51.196Z,38.63
2022-11-11T21:49:18.650Z,39.72
2022-11-11T21:51:46.060Z,39.35
2022-11-11T21:54:13.744Z,53.42
2022-11-11T21:56:41.170Z,53.63
2022-11-11T21:59:08.782Z,53.75
2022-11-11T22:01:38.807Z,41.65
2022-11-11T22:04:07.149Z,37.65
2022-11-11T22:06:35.045Z,34.88
2022-11-11T22:09:03.235Z,35.55
2022-11-11T22:11:32.044Z,28.35
2022-11-11T22:14:01.046Z,32.13
2022-11-11T22:16:29.039Z,28.10
2022-11-11T22:18:58.737Z,24.87
2022-11-11T22:21:27.141Z,26.73
2022-11-11T22:23:55.952Z,25.75
2022-11-11T22:26:23.669Z,27.93
2022-11-11T22:28:54.214Z,30.50
2022-11-11T22:31:23.917Z,27.05
2022-11-11T22:33:54.717Z,24.40
2022-11-11T22:36:23.747Z,20.60
2022-11-11T22:38:51.131Z,28.27
2022-11-11T22:41:20.105Z,28.00
2022-11-11T22:44:03.739Z,39.03
2022-11-11T22:46:31.967Z,47.03
2022-11-11T22:49:00.155Z,55.58
2022-11-11T22:51:29.846Z,46.55
2022-11-11T22:53:58.169Z,40.75
2022-11-11T22:56:25.928Z,36.88
2022-11-11T22:58:54.090Z,35.08
2022-11-11T23:01:28.769Z,31.73
2022-11-11T23:03:57.817Z,25.55
2022-11-11T23:06:26.123Z,25.95
2022-11-11T23:08:55.353Z,25.00
2022-11-11T23:11:23.951Z,50.75
2022-11-11T23:13:51.832Z,35.22
2022-11-11T23:16:20.040Z,34.33
2022-11-11T23:18:47.775Z,33.40
2022-11-11T23:21:16.163Z,30.48
2022-11-11T23:23:43.773Z,23.20
2022-11-11T23:26:13.345Z,25.70
2022-11-11T23:31:49.656Z,22.55
2022-11-11T23:34:17.113Z,22.52
2022-11-11T23:36:44.496Z,24.55
2022-11-11T23:39:11.895Z,20.58
2022-11-11T23:41:40.639Z,19.70
2022-11-11T23:44:08.040Z,27.43
2022-11-11T23:46:35.443Z,20.30
2022-11-11T23:49:02.959Z,21.17
2022-11-11T23:51:30.392Z,27.00
2022-11-11T23:53:57.834Z,34.88
2022-11-11T23:56:25.229Z,41.38
2022-11-11T23:58:54.017Z,34.10
